Extreme weather reports worldwide

Snow

Station
 
Location
 
Name
 
Wind
Knots
Gust
Knots
Vis
SM
Temp/Dew
C
Baro
inHg
METAR
 
KEJ UNEE Kemerovo, RU Kemerovo Airport 23 35 5.59 -7/-12 29.73 UNEE 190330Z 28012G18MPS 9000 -SHSN BKN019CB M07/M12 Q1007 R23/690345 NOSIG RMK QFE732
LVM KLVM Livingston, US Mission Field 19 27 1.25 -1/-2 30.21 KLVM 190340Z AUTO 07019G27KT 1 1/4SM -SN BR BKN005 OVC011 M01/M02 A3021 RMK AO2 PK WND 06030/0300 P0000 T10111022
YYQ CYYQ Churchill, CA Churchill Airport 19 27 12 -13/-16 30.23 CYYQ 190300Z 35019G27KT 12SM -SN DRSN BKN017 M13/M16 A3023 RMK SC6 SLP241
TOF UNTT Tomsk, RU Bogashevo Airport 14 27 2.05 -9/-12 29.76 UNTT 190330Z 32007G14MPS 3300 -SHSN BKN017CB BKN030 M09/M12 Q1008 R21/990237 NOSIG RMK QFE741
DLH KDLH Duluth, US Duluth International Airport 16 26 6 0/-1 29.80 KDLH 190333Z 32016G26KT 6SM -SN BKN013 01/M02 A2980 RMK AO2 PK WND 33026/0316 SNB12 P0000 T00061017

Station
 
Location
 
Name
 
Wind
Knots
Gust
Knots
Vis
SM
Temp/Dew
C
Baro
inHg
METAR
 
K1GM 18 25 1.63 -3/-3 30.30 K1GM 190258Z AUTO 03018G25KT 1 5/8SM SN BKN003 M03/M03 A3030 RMK AO2 PK WND 02028/01 VIS 1 1/8V1 5/8 PRESRR SLP289 60006 T10331034 51011 $
GPZ KGPZ Grand Rapids, US Grand Rapids Itasca Co-Gordon Newstrom field 18 24 9 -1/-3 29.93 KGPZ 190317Z AUTO 33018G24KT 9SM -SN OVC015 M01/M03 A2993 RMK AO2 P0000 FZRANO
FCA KGPI Kalispell, US Glacier Park International Airport 14 23 7 1/-1 30.31 KGPI 190255Z 01014G23KT 7SM -SN BKN060 OVC070 01/M01 A3031 RMK AO2 SLP282 P0000 60001 T00111011 53022
KBAC 17 22 10 -3/-8 30.15 KBAC 190335Z AUTO 36017G22KT 10SM -SN BKN035 OVC042 M03/M08 A3015 RMK AO2
GRM KCKC Grand Marais, US Grand Marais Cook County Airport 15 22 3 -1/-2 29.64 KCKC 190335Z AUTO 33015G22KT 3SM -SN M01/M02 A2964 RMK AO2 P0011
YYG CYYG Charlottetown, CA Charlottetown Airport 13 22 3 0/0 29.54 CYYG 190300Z 33013G22KT 3SM -SN BR OVC005 00/00 A2954 RMK SF8 /S01/ SLP008
TVF KTVF Thief River Falls, US Thief River Falls Regional Airport 16 21 9 -2/-7 30.09 KTVF 190256Z AUTO 36016G21KT 9SM -SN OVC027 M02/M07 A3009 RMK AO2 PK WND 36026/0206 SLP204 P0000 60000 T10221072 53015 FZRANO
RAP KRAP Rapid City, US Rapid City Regional Airport 14 21 1.5 0/-1 30.13 KRAP 190336Z 03014G21KT 1 1/2SM -SN BR BKN005 OVC012 M01/M02 A3013 RMK AO2 P0004 T10061017
RDR KRDR Grand Forks, US Grand Forks Air Force Base 15 20 10 -2/-5 30.14 KRDR 190328Z 36015G20KT 10SM -SN OVC044 M02/M05 A3014 RMK AO2A SLP224 FZRANO $
YGQ CYGQ Geraldton, CA Geraldton Greenstone Regional Airport 11 19 15 -1/-4 29.80 CYGQ 190300Z 03011G19KT 15SM -SN OVC017 M01/M04 A2980 RMK SC8 SLP106
YXL CYXL Sioux Lookout, CA Sioux Lookout Airport 10 19 10 -3/-6 29.94 CYXL 190300Z 02010G19KT 10SM -SN OVC030 M03/M06 A2994 RMK SC8 SLP163
KCOQ Cloquet, US Cloquet Carlton County Airport 12 18 3 -1/-1 29.83 KCOQ 190335Z AUTO 31012G18KT 3SM -SN BKN014 OVC022 M01/M01 A2983 RMK AO2 TSNO P0004
CYKP 11 17 2.25 -5/-6 29.92 CYKP 190328Z AUTO 36011G17KT 2 1/4SM -SN SCT014 OVC031 M05/M06 A2992 RMK SLP149
YHD CYHD Dryden, CA Dryden Regional Airport 10 17 8 -3/-6 29.96 CYHD 190320Z AUTO 01010G17KT 340V040 8SM -SN SCT019 OVC030 M03/M06 A2996 RMK SLP174
LYU KELO Ely, US Ely Municipal Airport 9 17 7 -1/-2 29.82 KELO 190335Z AUTO 33009G17KT 7SM -SN SCT016 BKN045 OVC070 M01/M02 A2982 RMK AO2 P0014
YYL CYYL Lynn Lake, CA Lynn Lake Airport 11 16 9 -4/-7 30.31 CYYL 190300Z AUTO 34011G16KT 9SM -SN OVC041 M04/M07 A3031 RMK SLP295
YLH CYLH Lansdowne House, CA Lansdowne House Airport 10 16 9 -5/-9 29.99 CYLH 190329Z AUTO 36010G16KT 9SM -SN OVC024 M05/M09 A2999 RMK SLP177
YQK CYQK Kenora, CA Kenora Airport 10 16 15 -3/-8 30.02 CYQK 190300Z 35010G16KT 15SM -SN OVC042 M03/M08 A3002 RMK SC8 SLP189
KMVH 9 16 2 -4/-6 30.29 KMVH 190340Z AUTO 01009G16KT 340V040 2SM -SN SCT003 BKN012 OVC055 M04/M06 A3029 RMK AO2
YAT CYAT Attawapiskat, CA Attawapiskat Airport 10 15 1.5 -4/-5 29.92 CYAT 190329Z AUTO 01010G15KT 1 1/2SM -SN OVC017 M04/M05 A2992 RMK SLP133
KORB Orr, US Orr Regional Airport 7 15 10 -1/-4 29.88 KORB 190333Z AUTO 32007G15KT 10SM -SN OVC019 M01/M04 A2988 RMK AO2
KLXL Little Falls, US Little Falls-Morrison County-Lindbergh field 7 14 4 0/-1 29.94 KLXL 190335Z AUTO 35007G14KT 4SM -SN SCT004 SCT010 OVC019 00/M01 A2994 RMK AO2
K1KM 22 3 -1/-3 30.22 K1KM 190258Z AUTO 36022KT 3SM -SN OVC023 M02/M03 A3022 RMK AO2 PK WND 35029/43 SHSNE48SNB48 CIG 023V031 PRESRR SLP259 P0001 60010 T10181030 52027 $
YBK CYBK Baker Lake, CA Baker Lake Airport 17 20 -15/-18 30.23 CYBK 190300Z 32017KT 20SM DRSN FEW080 FEW230 M15/M18 A3023 RMK AC1CI1 CI TR SLP239
K0CO 17 7 -10/-16 30.22 K0CO 190335Z AUTO 32017KT 7SM -SN SCT025 SCT034 BKN050 M10/M16 A3022 RMK AO2
SGC USRR Surgut, RU Surgut Airport 16 6.21 -12/-17 30.32 USRR 190330Z 35008MPS 310V020 9999 -SHSN SCT026CB BKN040 M12/M17 Q1027 R25/CLRD60 NOSIG RMK QFE765
NSK UOOO Norilsk, RU Norilsk-Alykel Airport 16 3.04 -20/-22 30.03 UOOO 190330Z 03008MPS 4900 DRSN BR FEW002 M20/M22 Q1017 R01/35//50 NOSIG RMK QFE748/0998
K1HM 15 0.63 -2/-3 30.35 K1HM 190258Z AUTO 02015KT 5/8SM SN FEW006 OVC013 M02/M03 A3035 RMK AO2 SLP303 60002 T10201032 52014 $
BIL KBIL Billings, US Billings Logan International Airport 15 1 0/-1 30.22 KBIL 190304Z 03015KT 1SM R10L/5000VP6000FT -SN BR VV002 00/M01 A3022 RMK AO2 P0000 T00001011 $
HLN KHLN Helena, US Helena Regional Airport 14 2.5 0/-1 30.28 KHLN 190340Z 34014KT 2 1/2SM -SN BR OVC018 01/M02 A3028 RMK AO2 P0002 T00061017
BYG KBYG Buffalo, US Johnson County Airport 14 9 1/0 30.07 KBYG 190335Z AUTO 01014KT 9SM -SN OVC004 02/00 A3007 RMK AO2 UPB29E31SNB31 CIG 003V008 P0000 T00170000
K1IM 14 2.25 -1/-1 30.34 K1IM 190258Z AUTO 04014KT 2 1/4SM -SN BKN005 BKN019 M01/M01 A3034 RMK AO2 SLP310 P0002 60012 T10141015 52016 $
SHR KSHR Sheridan, US Sheridan County Airport 13 0.75 0/0 30.15 KSHR 190342Z AUTO 01013KT 3/4SM -SN BR VV004 01/M01 A3015 RMK AO2 RAE04SNB04 P0011 T00061006
LWT KLWT Lewistown, US Lewistown Municipal Airport 13 6 -3/-5 30.28 KLWT 190315Z AUTO 01013KT 6SM -SN BR FEW006 OVC033 M03/M05 A3028 RMK AO2 P0000 T10331050
GTF KGTF Great Falls, US Great Falls International Airport 13 0.75 -1/-2 30.34 KGTF 190313Z 04013KT 3/4SM -SN BR VV007 M02/M02 A3034 RMK AO2 P0002 T10171022 $
K1CM 13 2.75 -3/-3 30.29 K1CM 190258Z AUTO 04013KT 2 3/4SM -SN BKN004 BKN019 M03/M04 A3029 RMK AO2 SLP289 60001 T10351037 52021 $
YCY CYCY Clyde River, CA Clyde River Airport 12 8 -17/-19 30.11 CYCY 190300Z AUTO 30012KT 8SM -SN FEW060 BKN120 OVC140 M17/M19 A3011 RMK SLP203
RCA KRCA Rapid City, US Ellsworth Air Force Base 12 4 0/-1 30.13 KRCA 190336Z AUTO 01012KT 4SM -SN BR BKN002 OVC006 00/M01 A3013 RMK AO2 CIG 002V004 SLP215 FZRANO $
PHP KPHP Philip, US Philip Airport 12 1.5 0/0 30.13 KPHP 190305Z AUTO 04012KT 1 1/2SM -SN BR FEW008 OVC014 01/M01 A3013 RMK AO2 P0001 T00061006
K1EM 11 2.75 -2/-2 30.31 K1EM 190258Z AUTO 04011KT 2 3/4SM -SN BR M M02/M03 A3031 RMK AO2 VIS 1 1/2V2 3/4 SLP301 P0001 60001 T10251029 52019 $
GFA KGFA Great Falls, US Malmstrom Air Force Base 10 1.88 -2/-2 30.38 KGFA 190338Z AUTO 04010KT 1 7/8SM -SN OVC004 M02/M02 A3038 RMK AO2 SLP316 $
CTB KCTB Cut Bank, US Cut Bank International Airport 10 1.5 -2/-3 30.39 KCTB 190256Z AUTO 35010KT 1 1/2SM -SN BR OVC019 M03/M03 A3039 RMK AO2 SLP325 P0000 60004 T10281033 51011
KCUT Custer, US Custer County Airport 9 0.75 -1/-2 30.02 KCUT 190338Z AUTO 06009KT 3/4SM -SN BR BKN004 OVC010 M01/M02 A3002 RMK AO2 SNB0257 P0000 T10111022
K1NM 9 2.75 -2/-2 30.26 K1NM 190258Z AUTO 06009KT 2 3/4SM -SN SCT005 OVC022 M03/M03 A3026 RMK AO2 CIG 005V022 SLP280 60003 T10281026 53014 $
K1DM 9 1.63 -1/-2 30.29 K1DM 190258Z AUTO 04009KT 1 5/8SM -SN OVC004 M02/M02 A3029 RMK AO2 SLP296 60002 T10191023 52021 $